CheckWX is a tool to help pilots better visualize weather data.  It is not intended as a substitute for an official pre-flight weather briefing.

14:22:41 UTC

KLAS METAR
Mc Carran International Airport
Las Vegas, Nevada, USA
Current

1 hour ago

KLAS 161256Z 17004KT 10SM CLR 29/M05 A2980 RMK AO2 SLP058 T02891050
Observed
Jul-16 @ 12:56 UTC
Wind
  • 170° at 4 KTS
Visibility
10 SM
Flight Rules
VFR
Cloud Levels
  • Clear skies
Temperature
29°C / 84°F
Dewpoint
-5°C / 23°F
Humidity
10%
Altimeter
29.8" Hg
Pressure
1009.12 hPa
Previous

2 hours ago

KLAS 161156Z 18006KT 10SM CLR 30/M06 A2979 RMK AO2 SLP053 T03001061 10350 20300 53000
Observed
Jul-16 @ 11:56 UTC
Wind
  • 180° at 6 KTS
Visibility
10 SM
Flight Rules
VFR
Cloud Levels
  • Clear skies
Temperature
30°C / 86°F
Dewpoint
-6°C / 21°F
Humidity
9%
Altimeter
29.79" Hg
Pressure
1008.82 hPa
Previous

3 hours ago

KLAS 161056Z 18010KT 10SM CLR 31/M07 A2977 RMK AO2 SLP046 T03061067
Observed
Jul-16 @ 10:56 UTC
Wind
  • 180° at 10 KTS
Visibility
10 SM
Flight Rules
VFR
Cloud Levels
  • Clear skies
Temperature
31°C / 88°F
Dewpoint
-7°C / 19°F
Humidity
8%
Altimeter
29.77" Hg
Pressure
1008.12 hPa